x

Buoy B01 - Western Maine Shelf (44030) Wave Buoy

10:04pm - Mon 1st Sep 2014 All times are EDT. -4 hours from GMT.

  • Sig Wave height 2.0ft
  • Peak Period 11s
  • Wind
    4mph
  • Sea Temp 64°f
  • 空気 Temp 65°f
  • Sea Pressure 1012.4mb
  • Buoy B01 - Western Maine Shelf
  • Buoy B01 - Western Maine Shelf

More Historic Weather Station data

Upgrade to MSW Pro to gain access to the past 30 days of data for over 8000 Wavebouys and Weather Stations around the globe.

Join Pro

Comparision Forecast

View Surf forecast
   
Mon 09/01 10:04pm 2ft 11s 4
mph
1012.4mb 64f 65f
9:04pm 1.3ft 6s 4
mph
1012.4mb 64f 66f
8:04pm 1.6ft 6s 4
mph
1011.8mb 64f 66f
7:04pm 2ft 6s 7
mph
1011.3mb 64f 67f
6:04pm 1.6ft 6s 11
mph
1011.3mb 65f 68f
5:04pm 1.6ft 8s 9 11 mph 1011.5mb 65f 68f
4:04pm 2.5ft 6s 9
mph
1011.6mb 65f 68f
3:04pm 2ft 8s 9
mph
1012.1mb 66f 69f
2:04pm 2ft 8s 7 9 mph 1012.6mb 66f 68f
1:04pm 2ft 8s 7 9 mph 1012.8mb 65f 68f
12:04pm 2.5ft 11s 7
mph
1013mb 65f 67f
11:04am 2ft 8s 2 4 mph 1013.2mb 62f 67f
10:04am 2ft 11s 4
mph
1013.5mb 62f 65f
9:04am 2.5ft 8s 4
mph
1013.6mb 62f 64f
8:04am 1.6ft 5s 7
mph
1013.4mb 62f 65f
7:04am 2ft 6s 9
mph
1013.1mb 62f 65f
6:04am 1.6ft 5s 9
mph
1012.8mb 62f 65f
5:04am 2.5ft 11s 7
mph
1012.2mb 62f 65f
4:04am 2.5ft 11s 9 11 mph 1011.9mb 62f 65f
3:04am 2.5ft 5s 7
mph
1011.8mb 63f 64f
2:04am 2.5ft 5s 7 9 mph 1011.8mb 63f 65f
1:04am 2.5ft 5s 7 9 mph 1012.4mb 63f 65f
12:04am 1.6ft 5s 7 9 mph 1012.3mb 62f 65f
Sun 08/31 11:04pm 2.5ft 11s 9
mph
1012.6mb 62f 65f
10:04pm 2ft 8s 11
mph
1012.8mb 62f 65f
9:04pm 1.6ft 5s 11
mph
1013.2mb 62f 65f
8:04pm 2ft 5s 7 9 mph 1012.7mb 62f 65f
6:04pm 2.5ft 5s 7 9 mph 1012.7mb 63f 66f
5:04pm 2.5ft 5s 7
mph
1012.6mb 63f 66f
4:04pm 2.5ft 8s 9
mph
1012.6mb 63f 67f
3:04pm 2.5ft 8s 11 13 mph 1012.7mb 63f 68f
2:04pm 2.5ft 8s 11 16 mph 1013.1mb 63f 68f
1:04pm 2.5ft 8s 7 9 mph 1013.9mb 63f 66f
12:04pm 2.5ft 5s 11
mph
1014.5mb 62f 65f
11:04am 3ft 5s 13 16 mph 1015.3mb 62f 65f
10:04am 3ft 8s 11 13 mph 1015.9mb 62f 64f
9:04am 3.5ft 5s 13
mph
1016.1mb 61f 64f
8:04am 3ft 5s 13 16 mph 1016.2mb 61f 64f
7:04am 3ft 5s 13 16 mph 1016.4mb 61f 64f
6:04am 3ft 5s 13
mph
1016.4mb 61f 64f
5:04am 3.5ft 5s 16 18 mph 1016.4mb 61f 64f
4:04am 3.5ft 5s 16 20 mph 1016.5mb 61f 64f
3:04am 3.5ft 5s 18 20 mph 1016.8mb 62f 64f
2:04am 3.5ft 5s 16 20 mph 1017.5mb 62f 64f
1:04am 3.5ft 5s 16 18 mph 1018.1mb 62f 64f
12:04am 3.5ft 5s 18 20 mph 1018.3mb 62f 64f
Sat 08/30 11:04pm 4ft 5s 18 22 mph 1018.7mb 62f 64f
10:04pm 4ft 5s 18 20 mph 1018.9mb 62f 65f
9:04pm 4.5ft 5s 18 20 mph 1019mb 62f 65f
8:04pm 4ft 5s 18 22 mph 1018.7mb 62f 65f
7:04pm 3.5ft 5s 18 20 mph 1018.9mb 62f 65f
6:04pm 3.5ft 5s 18 22 mph 1019.5mb 63f 65f
5:04pm 4ft 5s 20 22 mph 1020mb 63f 65f
3:04pm 3.5ft 5s 20 25 mph 1021.1mb 65f 64f
2:04pm 3.5ft 4s 20 25 mph 1021.9mb 65f 64f
1:04pm 3ft 4s 20 22 mph 1023mb 65f 64f
12:04pm 2.5ft 4s 18 20 mph 1023.7mb 65f 64f
11:04am 3.5ft 11s 16 18 mph 1024.3mb 64f 64f
10:04am 3.5ft 11s 13 18 mph 1024.4mb 64f 63f
9:04am  -   -  16 18 mph 1024.5mb 64f 63f
8:04am 3.5ft 11s 13 16 mph 1024.8mb 64f 63f
7:04am 3.5ft 11s 13 16 mph 1024.7mb 64f 63f
6:04am 3ft 11s 13 16 mph 1024.4mb 64f 63f
5:04am 3ft 11s 13 16 mph 1024.2mb 64f 63f
4:04am 2.5ft 11s 13 16 mph 1024.2mb 64f 63f
3:04am 2.5ft 11s 11 13 mph 1024mb 64f 63f
2:04am 3.5ft 11s 13 16 mph 1024.2mb 65f 63f
1:04am 3ft 11s 13 16 mph 1023.8mb 65f 63f
12:04am 2ft 3s 16 18 mph 1023.7mb 66f 64f
Fri 08/29 11:04pm 1.3ft 3s 13 16 mph 1023.6mb 66f 64f
10:04pm  -   -  13 16 mph 1023.4mb 65f 63f
9:04pm  -   -  13 16 mph 1023.3mb 65f 63f
8:04pm 3.5ft 11s 11 13 mph 1022.9mb 65f 63f
7:04pm 3.5ft 11s 11 13 mph 1022.7mb 66f 63f
6:04pm 1.3ft 4s 11 13 mph 1021.9mb 66f 63f
5:04pm 3.5ft 11s 9 11 mph 1021.7mb 66f 63f
4:04pm 3.5ft 11s 9 11 mph 1021.8mb 66f 63f
3:04pm  -   -  9 11 mph 1021.5mb 66f 62f
2:04pm 1.6ft 4s 11 13 mph 1021.4mb 67f 61f
1:04pm 1.6ft 3s 11 13 mph 1021.3mb 66f 61f
12:04pm 1.6ft 3s 11 13 mph 1021.4mb 66f 62f
11:04am 1.3ft 3s 13 16 mph 1021mb 66f 61f
10:04am 1ft 3s 9 11 mph 1020.7mb 65f 62f
9:04am 1ft 2s 9 11 mph 1019.9mb 65f 62f
8:04am 1ft 3s 11 13 mph 1018.9mb 65f 61f
7:04am  -   -  9 11 mph 1018.3mb 65f 61f
6:04am 1ft 3s 11 13 mph 1017mb 65f 61f
5:04am  -   -  11 16 mph 1015.9mb 65f 62f
4:04am  -   -  9 13 mph 1015.3mb 66f 62f